O Brien, Oregon
Current Conditions -  °F | °C
As of 8:56 PM on Saturday 20 Dec 2014 (Local Time) from KBOK Reporting Station
Moderate Rain Moderate Rain  
Wind Chill: 57°   Ceiling: 100
Heat Index: 57°   Visibility: 0.25mi
Dew Point: 57°   Wind: 7mph
Humidity: 100%   Direction: 200°SSW
Pressure: 30.09"   Gusts: NA
Location:  42.0377°N, 123.721°W
Report Text: KBOK 210456Z AUTO 20006KT 1/4SM RA FG OVC001 14/14 A3009 RMK AO2 T01380138 P0010 SLP189
Loading
Personal Weather Stations






























Interactive Weather Map New forecast layout! Learn more

10-Day Weather Forecast

Advertisements
Track Severe Weather on mobile